createdAt,value
2023-05-19T00:04:14.781Z,100003.69
2023-05-19T00:09:17.103Z,100002.03
2023-05-19T00:14:19.380Z,100003.28
2023-05-19T00:19:22.622Z,100020.63
2023-05-19T00:24:24.988Z,100010.75
2023-05-19T00:29:27.121Z,100028.69
2023-05-19T00:34:29.203Z,100029.50
2023-05-19T00:39:31.287Z,100033.22
2023-05-19T00:44:33.562Z,100036.31
2023-05-19T00:49:37.246Z,100043.97
2023-05-19T00:54:39.305Z,100040.22
2023-05-19T00:59:41.469Z,100034.47
2023-05-19T01:04:45.072Z,100047.44
2023-05-19T01:09:47.588Z,100055.28
2023-05-19T01:14:49.722Z,100056.47
2023-05-19T01:20:06.648Z,100048.22
2023-05-19T01:25:11.364Z,100055.16
2023-05-19T01:30:30.825Z,100066.66
2023-05-19T01:35:39.016Z,100092.28
2023-05-19T01:40:42.443Z,100092.16
2023-05-19T01:45:45.474Z,100095.06
2023-05-19T01:50:47.816Z,100095.13
2023-05-19T01:55:54.893Z,100104.66
2023-05-19T02:01:24.385Z,100108.97
2023-05-19T02:06:54.157Z,100117.69
2023-05-19T02:12:03.078Z,100116.53
2023-05-19T02:17:06.500Z,100112.75
2023-05-19T02:22:09.007Z,100117.81
2023-05-19T02:27:11.111Z,100107.31
2023-05-19T02:32:13.682Z,100116.81
2023-05-19T02:37:16.354Z,100115.72
2023-05-19T02:42:18.550Z,100120.50
2023-05-19T02:47:20.668Z,100113.75
2023-05-19T02:52:22.877Z,100132.63
2023-05-19T02:57:26.814Z,100130.59
2023-05-19T03:02:29.149Z,100131.75
2023-05-19T03:07:31.398Z,100137.63
2023-05-19T03:12:33.882Z,100130.22
2023-05-19T03:17:36.518Z,100138.28
2023-05-19T03:22:38.729Z,100151.91
2023-05-19T03:27:40.789Z,100149.53
2023-05-19T03:32:42.955Z,100154.13
2023-05-19T03:37:45.582Z,100160.91
2023-05-19T03:42:48.708Z,100159.00
2023-05-19T03:47:51.822Z,100165.63
2023-05-19T03:53:09.129Z,100168.47
2023-05-19T03:58:16.123Z,100176.75
2023-05-19T04:03:18.408Z,100172.16
2023-05-19T04:08:20.600Z,100175.69
2023-05-19T04:13:22.660Z,100181.94
2023-05-19T04:18:26.331Z,100181.94
2023-05-19T04:23:29.613Z,100183.03
2023-05-19T04:28:32.183Z,100181.44
2023-05-19T04:33:34.353Z,100189.00
2023-05-19T04:38:40.198Z,100182.44
2023-05-19T04:43:44.869Z,100192.00
2023-05-19T04:48:48.613Z,100191.44
2023-05-19T04:53:51.739Z,100200.66
2023-05-19T04:58:55.291Z,100192.06
2023-05-19T05:03:59.268Z,100204.53
2023-05-19T05:09:03.843Z,100198.63
2023-05-19T05:14:07.247Z,100193.41
2023-05-19T05:19:09.738Z,100193.28
2023-05-19T05:24:13.565Z,100200.59
2023-05-19T05:29:20.237Z,100206.13
2023-05-19T05:34:22.418Z,100214.72
2023-05-19T05:39:25.197Z,100209.81
2023-05-19T05:44:27.477Z,100214.97
2023-05-19T05:49:31.323Z,100224.91
2023-05-19T05:54:34.075Z,100212.19
2023-05-19T05:59:36.283Z,100219.13
2023-05-19T06:04:38.511Z,100221.69
2023-05-19T06:09:41.175Z,100218.75
2023-05-19T06:14:44.489Z,100224.09
2023-05-19T06:19:49.214Z,100232.81
2023-05-19T06:24:51.498Z,100222.69
2023-05-19T06:29:54.899Z,100224.16
2023-05-19T06:34:57.258Z,100221.72
2023-05-19T06:40:00.780Z,100229.22
2023-05-19T06:45:02.967Z,100225.88
2023-05-19T06:50:07.153Z,100234.34
2023-05-19T06:55:11.456Z,100229.00
2023-05-19T07:00:17.026Z,100233.94
2023-05-19T07:05:23.299Z,100225.75
2023-05-19T07:10:30.269Z,100236.56
2023-05-19T07:15:32.656Z,100241.56
2023-05-19T07:20:35.015Z,100242.41
2023-05-19T07:25:37.257Z,100230.38
2023-05-19T07:30:39.757Z,100248.97
2023-05-19T07:35:41.988Z,100255.06
2023-05-19T07:40:44.062Z,100252.59
2023-05-19T07:45:46.254Z,100255.91
2023-05-19T07:50:48.934Z,100262.69
2023-05-19T07:55:51.457Z,100253.81
2023-05-19T08:00:53.583Z,100248.31
2023-05-19T08:05:55.822Z,100247.47
2023-05-19T08:10:57.888Z,100237.28
2023-05-19T08:16:00.662Z,100248.50
2023-05-19T08:21:02.980Z,100249.47
2023-05-19T08:26:05.658Z,100255.94
2023-05-19T08:31:07.879Z,100258.75
2023-05-19T08:36:10.120Z,100253.94
2023-05-19T08:41:12.425Z,100254.16
2023-05-19T08:46:16.487Z,100251.41
2023-05-19T08:51:24.094Z,100249.84
2023-05-19T08:56:27.276Z,100248.16
2023-05-19T09:01:30.443Z,100235.13
2023-05-19T09:06:32.923Z,100229.72
2023-05-19T09:11:37.668Z,100226.00
2023-05-19T09:16:40.379Z,100215.75
2023-05-19T09:21:44.516Z,100211.34
2023-05-19T09:26:46.756Z,100212.16
2023-05-19T09:32:00.693Z,100204.63
2023-05-19T09:37:03.170Z,100210.66
2023-05-19T09:42:06.391Z,100208.41
2023-05-19T09:47:10.083Z,100208.00
2023-05-19T09:52:18.419Z,100203.66
2023-05-19T09:57:27.333Z,100210.28
2023-05-19T10:02:31.692Z,100204.25
2023-05-19T10:07:35.104Z,100203.88
2023-05-19T10:12:39.455Z,100202.47
2023-05-19T10:17:43.054Z,100183.03
2023-05-19T10:22:46.553Z,100175.63
2023-05-19T10:28:06.172Z,100184.56
2023-05-19T10:33:12.308Z,100184.59
2023-05-19T10:38:47.227Z,100173.72
2023-05-19T10:44:11.181Z,100178.16
2023-05-19T10:49:21.803Z,100184.25
2023-05-19T10:54:49.759Z,100182.59
2023-05-19T10:59:51.917Z,100187.69
2023-05-19T11:04:56.469Z,100170.72
2023-05-19T11:09:58.757Z,100182.56
2023-05-19T11:15:01.168Z,100181.47
2023-05-19T11:20:05.086Z,100177.69
2023-05-19T11:25:09.147Z,100181.63
2023-05-19T11:30:15.039Z,100195.69
2023-05-19T11:35:19.243Z,100189.22
2023-05-19T11:40:22.474Z,100188.97
2023-05-19T11:45:32.109Z,100204.63
2023-05-19T11:50:37.250Z,100192.69
2023-05-19T11:55:45.019Z,100197.00
2023-05-19T12:00:48.070Z,100190.13
2023-05-19T12:05:50.805Z,100183.47
2023-05-19T12:10:53.169Z,100189.69
2023-05-19T12:16:00.658Z,100188.72
2023-05-19T12:21:03.237Z,100181.13
2023-05-19T12:26:06.146Z,100192.09
2023-05-19T12:31:08.421Z,100188.84
2023-05-19T12:36:10.967Z,100194.19
2023-05-19T12:41:13.238Z,100180.81
2023-05-19T12:46:16.716Z,100194.44
2023-05-19T12:51:20.127Z,100209.81
2023-05-19T12:56:27.111Z,100209.53
2023-05-19T13:01:30.563Z,100196.22
2023-05-19T13:06:33.807Z,100195.94
2023-05-19T13:11:35.962Z,100199.97
2023-05-19T13:16:38.152Z,100192.47
2023-05-19T13:21:40.286Z,100205.88
2023-05-19T13:26:42.402Z,100204.06
2023-05-19T13:31:45.156Z,100205.41
2023-05-19T13:36:49.040Z,100203.50
2023-05-19T13:41:51.161Z,100198.28
2023-05-19T13:46:53.350Z,100195.63
2023-05-19T13:51:58.705Z,100192.78
2023-05-19T13:57:01.249Z,100197.50
2023-05-19T14:02:03.498Z,100196.50
2023-05-19T14:07:06.732Z,100204.13
2023-05-19T14:12:12.163Z,100198.56
2023-05-19T14:17:14.563Z,100187.66
2023-05-19T14:22:18.297Z,100191.59
2023-05-19T14:27:20.402Z,100192.00
2023-05-19T14:32:22.609Z,100194.72
2023-05-19T14:37:27.680Z,100180.47
2023-05-19T14:42:29.802Z,100182.13
2023-05-19T14:47:32.003Z,100185.09
2023-05-19T14:52:34.131Z,100182.69
2023-05-19T14:57:36.233Z,100184.91
2023-05-19T15:02:38.695Z,100181.75
2023-05-19T15:07:41.040Z,100183.31
2023-05-19T15:12:43.370Z,100186.34
2023-05-19T15:17:48.287Z,100182.63
2023-05-19T15:22:50.359Z,100188.25
2023-05-19T15:27:52.474Z,100182.59
2023-05-19T15:32:54.960Z,100194.53
2023-05-19T15:37:57.100Z,100201.81
2023-05-19T15:43:00.250Z,100188.69
2023-05-19T15:48:02.496Z,100194.06
2023-05-19T15:53:06.905Z,100190.16
2023-05-19T15:58:09.074Z,100198.94
2023-05-19T16:03:11.317Z,100208.94
2023-05-19T16:08:13.645Z,100217.13
2023-05-19T16:13:15.832Z,100229.66
2023-05-19T16:18:17.854Z,100233.81
2023-05-19T16:23:19.860Z,100234.75
2023-05-19T16:28:24.497Z,100250.75
2023-05-19T16:33:28.013Z,100230.84
2023-05-19T16:38:30.202Z,100251.72
2023-05-19T16:43:34.023Z,100243.31
2023-05-19T16:48:36.448Z,100264.22
2023-05-19T16:53:39.842Z,100268.38
2023-05-19T16:58:42.201Z,100268.63
2023-05-19T17:03:44.372Z,100275.25
2023-05-19T17:08:46.777Z,100262.03
2023-05-19T17:13:48.992Z,100279.78
2023-05-19T17:18:51.276Z,100294.47
2023-05-19T17:23:53.568Z,100300.31
2023-05-19T17:28:55.873Z,100296.88
2023-05-19T17:33:57.967Z,100306.59
2023-05-19T17:39:00.270Z,100312.88
2023-05-19T17:44:03.831Z,100308.41
2023-05-19T17:49:06.569Z,100321.31
2023-05-19T17:54:09.121Z,100324.66
2023-05-19T17:59:11.473Z,100336.06
2023-05-19T18:04:15.902Z,100334.06
2023-05-19T18:09:19.965Z,100329.19
2023-05-19T18:14:22.066Z,100339.50
2023-05-19T18:19:24.312Z,100344.31
2023-05-19T18:24:26.602Z,100350.50
2023-05-19T18:29:28.785Z,100357.97
2023-05-19T18:34:30.962Z,100356.63
2023-05-19T18:39:33.104Z,100355.81
2023-05-19T18:44:36.760Z,100363.25
2023-05-19T18:49:39.022Z,100359.00
2023-05-19T18:54:42.446Z,100369.13
2023-05-19T18:59:44.560Z,100358.69
2023-05-19T19:04:46.778Z,100364.75
2023-05-19T19:09:48.994Z,100369.47
2023-05-19T19:14:51.357Z,100373.06
2023-05-19T19:19:53.701Z,100374.47
2023-05-19T19:24:55.893Z,100382.56
2023-05-19T19:29:58.659Z,100376.25
2023-05-19T19:35:01.030Z,100382.69
2023-05-19T19:40:03.562Z,100385.25
2023-05-19T19:45:09.516Z,100382.78
2023-05-19T19:50:11.889Z,100392.41
2023-05-19T19:55:14.178Z,100385.63
2023-05-19T20:00:16.760Z,100396.50
2023-05-19T20:05:19.077Z,100404.66
2023-05-19T20:10:21.184Z,100407.53
2023-05-19T20:15:23.373Z,100403.72
2023-05-19T20:20:25.228Z,100404.50
2023-05-19T20:25:27.281Z,100412.44
2023-05-19T20:30:29.476Z,100407.13
2023-05-19T20:35:32.064Z,100410.47
2023-05-19T20:40:34.355Z,100407.16
2023-05-19T20:45:36.763Z,100411.47
2023-05-19T20:50:39.736Z,100420.63
2023-05-19T20:55:44.534Z,100413.94
2023-05-19T21:00:46.671Z,100423.22
2023-05-19T21:05:48.774Z,100423.31
2023-05-19T21:10:51.070Z,100422.47
2023-05-19T21:15:53.155Z,100417.63
2023-05-19T21:20:55.123Z,100421.59
2023-05-19T21:25:58.513Z,100419.78
2023-05-19T21:31:00.828Z,100416.78
2023-05-19T21:36:03.100Z,100418.66
2023-05-19T21:41:05.084Z,100426.41
2023-05-19T21:46:07.521Z,100430.94
2023-05-19T21:51:09.649Z,100431.28
2023-05-19T21:56:11.918Z,100423.28
2023-05-19T22:01:14.453Z,100422.75
2023-05-19T22:06:16.482Z,100406.78
2023-05-19T22:11:18.430Z,100408.97
2023-05-19T22:16:21.026Z,100407.91
2023-05-19T22:21:23.223Z,100416.25
2023-05-19T22:26:25.455Z,100415.44
2023-05-19T22:31:28.534Z,100424.09
2023-05-19T22:36:31.330Z,100428.25
2023-05-19T22:41:34.840Z,100416.75
2023-05-19T22:46:37.048Z,100421.53
2023-05-19T22:51:39.854Z,100409.41
2023-05-19T22:56:46.439Z,100418.03
2023-05-19T23:01:48.725Z,100409.41
2023-05-19T23:06:50.971Z,100403.59
2023-05-19T23:11:53.680Z,100417.09
2023-05-19T23:16:56.089Z,100400.78
2023-05-19T23:21:58.218Z,100412.63
2023-05-19T23:27:01.105Z,100407.38
2023-05-19T23:32:03.299Z,100404.97
2023-05-19T23:37:05.615Z,100412.50
2023-05-19T23:42:07.770Z,100383.84
2023-05-19T23:47:09.957Z,100392.66
2023-05-19T23:52:13.069Z,100401.41
2023-05-19T23:57:15.123Z,100390.16
